createdAt,value
2019-03-21T00:04:34.920Z,102853.00
2019-03-21T00:09:38.708Z,102858.03
2019-03-21T00:14:51.578Z,102863.47
2019-03-21T00:19:55.179Z,102862.73
2019-03-21T00:24:59.055Z,102852.77
2019-03-21T00:30:02.472Z,102859.17
2019-03-21T00:35:07.293Z,102858.03
2019-03-21T00:40:13.216Z,102858.29
2019-03-21T00:45:16.769Z,102863.28
2019-03-21T00:50:22.025Z,102851.52
2019-03-21T00:55:25.571Z,102853.53
2019-03-21T01:00:31.793Z,102860.01
2019-03-21T01:05:35.283Z,102852.41
2019-03-21T01:10:38.643Z,102842.19
2019-03-21T01:15:42.153Z,102835.91
2019-03-21T01:20:45.907Z,102835.53
2019-03-21T01:25:50.739Z,102825.20
2019-03-21T01:30:54.186Z,102821.84
2019-03-21T01:35:58.029Z,102814.69
2019-03-21T01:41:02.359Z,102802.84
2019-03-21T01:46:08.085Z,102810.61
2019-03-21T01:51:12.315Z,102815.02
2019-03-21T01:56:16.189Z,102811.86
2019-03-21T02:01:20.018Z,102805.78
2019-03-21T02:06:23.833Z,102796.28
2019-03-21T02:11:27.648Z,102801.15
2019-03-21T02:16:31.111Z,102797.22
2019-03-21T02:21:34.569Z,102790.72
2019-03-21T02:26:39.231Z,102796.80
2019-03-21T02:31:42.723Z,102788.36
2019-03-21T02:36:47.232Z,102783.59
2019-03-21T02:41:50.858Z,102776.55
2019-03-21T02:46:54.235Z,102779.23
2019-03-21T02:51:58.968Z,102771.99
2019-03-21T02:57:02.509Z,102777.66
2019-03-21T03:02:05.964Z,102775.56
2019-03-21T03:07:09.938Z,102762.83
2019-03-21T03:12:13.358Z,102755.01
2019-03-21T03:17:17.234Z,102751.39
2019-03-21T03:22:20.881Z,102754.63
2019-03-21T03:27:24.321Z,102762.40
2019-03-21T03:32:28.143Z,102759.15
2019-03-21T03:37:31.958Z,102756.89
2019-03-21T03:42:35.476Z,102750.48
2019-03-21T03:47:40.640Z,102757.41
2019-03-21T03:52:44.819Z,102762.28
2019-03-21T03:57:49.432Z,102756.95
2019-03-21T04:02:53.601Z,102758.73
2019-03-21T04:07:57.140Z,102758.15
2019-03-21T04:13:01.210Z,102755.00
2019-03-21T04:18:05.106Z,102762.14
2019-03-21T04:23:09.304Z,102761.82
2019-03-21T04:28:14.814Z,102764.48
2019-03-21T04:33:22.349Z,102761.61
2019-03-21T04:38:24.789Z,102756.90
2019-03-21T04:43:29.018Z,102763.23
2019-03-21T04:48:34.309Z,102770.05
2019-03-21T04:53:38.135Z,102767.82
2019-03-21T04:58:41.549Z,102761.72
2019-03-21T05:03:44.973Z,102768.16
2019-03-21T05:08:49.917Z,102757.34
2019-03-21T05:13:53.306Z,102759.75
2019-03-21T05:18:57.298Z,102771.45
2019-03-21T05:24:00.772Z,102768.34
2019-03-21T05:29:04.765Z,102769.19
2019-03-21T05:34:08.267Z,102771.02
2019-03-21T05:39:12.250Z,102768.47
2019-03-21T05:44:22.698Z,102778.02
2019-03-21T05:49:26.548Z,102784.09
2019-03-21T05:54:29.975Z,102781.95
2019-03-21T05:59:33.788Z,102780.69
2019-03-21T06:04:37.677Z,102781.31
2019-03-21T06:09:41.601Z,102793.98
2019-03-21T06:14:49.529Z,102790.34
2019-03-21T06:19:58.277Z,102797.15
2019-03-21T06:25:57.602Z,102800.67
2019-03-21T06:31:01.453Z,102799.77
2019-03-21T06:36:05.602Z,102801.17
2019-03-21T06:41:09.409Z,102806.80
2019-03-21T06:46:13.228Z,102803.94
2019-03-21T06:51:16.247Z,102813.72
2019-03-21T06:56:19.630Z,102826.92
2019-03-21T07:01:23.546Z,102832.59
2019-03-21T07:06:27.376Z,102826.17
2019-03-21T07:11:31.216Z,102837.11
2019-03-21T07:16:35.058Z,102838.16
2019-03-21T07:21:39.280Z,102838.52
2019-03-21T07:26:42.394Z,102836.40
2019-03-21T07:31:46.385Z,102838.16
2019-03-21T07:36:50.539Z,102846.95
2019-03-21T07:41:54.409Z,102850.72
2019-03-21T07:46:58.452Z,102853.95
2019-03-21T07:52:02.020Z,102860.80
2019-03-21T07:57:06.274Z,102859.91
2019-03-21T08:02:10.350Z,102863.77
2019-03-21T08:07:14.306Z,102869.47
2019-03-21T08:12:18.471Z,102883.13
2019-03-21T08:17:21.916Z,102885.19
2019-03-21T08:22:26.008Z,102898.87
2019-03-21T08:27:30.103Z,102902.50
2019-03-21T08:32:33.988Z,102909.08
2019-03-21T08:37:38.172Z,102912.09
2019-03-21T08:42:43.931Z,102901.40
2019-03-21T08:47:48.059Z,102903.78
2019-03-21T08:52:52.757Z,102911.50
2019-03-21T08:57:59.527Z,102902.73
2019-03-21T09:03:03.360Z,102908.01
2019-03-21T09:08:06.864Z,102900.09
2019-03-21T09:13:10.354Z,102896.70
2019-03-21T09:18:13.501Z,102893.48
2019-03-21T09:23:16.912Z,102897.99
2019-03-21T09:28:20.831Z,102886.55
2019-03-21T09:33:24.768Z,102875.08
2019-03-21T09:38:28.179Z,102880.38
2019-03-21T09:43:32.016Z,102875.45
2019-03-21T09:48:35.738Z,102868.31
2019-03-21T09:53:39.594Z,102866.66
2019-03-21T09:58:43.907Z,102881.86
2019-03-21T10:03:47.363Z,102879.30
2019-03-21T10:08:50.789Z,102865.33
2019-03-21T10:13:54.644Z,102867.52
2019-03-21T10:18:58.879Z,102868.47
2019-03-21T10:24:02.972Z,102866.60
2019-03-21T10:29:06.835Z,102868.48
2019-03-21T10:34:10.991Z,102869.28
2019-03-21T10:39:14.372Z,102868.48
2019-03-21T10:44:17.857Z,102857.97
2019-03-21T10:49:22.958Z,102864.65
2019-03-21T10:54:26.739Z,102847.45
2019-03-21T10:59:30.592Z,102861.42
2019-03-21T11:04:34.429Z,102878.70
2019-03-21T11:09:37.940Z,102868.96
2019-03-21T11:14:41.762Z,102866.01
2019-03-21T11:19:46.007Z,102858.14
2019-03-21T11:24:49.830Z,102850.48
2019-03-21T11:29:53.658Z,102846.29
2019-03-21T11:34:57.754Z,102838.31
2019-03-21T11:40:01.876Z,102834.70
2019-03-21T11:45:05.797Z,102832.95
2019-03-21T11:50:09.666Z,102832.20
2019-03-21T11:55:13.587Z,102830.52
2019-03-21T12:00:18.615Z,102825.80
2019-03-21T12:05:22.401Z,102832.13
2019-03-21T12:10:26.531Z,102832.22
2019-03-21T12:15:30.208Z,102824.97
2019-03-21T12:20:34.341Z,102838.03
2019-03-21T12:25:37.861Z,102844.87
2019-03-21T12:30:42.615Z,102837.23
2019-03-21T12:35:46.842Z,102840.88
2019-03-21T12:40:50.645Z,102848.97
2019-03-21T12:45:54.492Z,102842.84
2019-03-21T12:50:58.686Z,102843.48
2019-03-21T12:56:03.522Z,102863.67
2019-03-21T13:01:10.201Z,102865.41
2019-03-21T13:06:13.677Z,102852.81
2019-03-21T13:11:17.679Z,102846.64
2019-03-21T13:16:21.614Z,102839.70
2019-03-21T13:21:25.874Z,102831.00
2019-03-21T13:26:29.981Z,102838.26
2019-03-21T13:31:33.825Z,102839.38
2019-03-21T13:36:37.240Z,102836.90
2019-03-21T13:41:40.764Z,102826.75
2019-03-21T13:46:44.713Z,102821.14
2019-03-21T13:51:47.427Z,102842.33
2019-03-21T13:56:50.875Z,102851.50
2019-03-21T14:01:54.174Z,102838.55
2019-03-21T14:06:58.039Z,102835.04
2019-03-21T14:12:02.392Z,102835.45
2019-03-21T14:17:06.609Z,102834.70
2019-03-21T14:22:11.042Z,102829.61
2019-03-21T14:27:15.282Z,102815.84
2019-03-21T14:32:19.098Z,102827.16
2019-03-21T14:37:23.340Z,102817.86
2019-03-21T14:42:27.194Z,102817.48
2019-03-21T14:47:36.155Z,102807.13
2019-03-21T14:52:36.955Z,102824.83
2019-03-21T14:57:41.579Z,102847.91
2019-03-21T15:02:45.257Z,102853.31
2019-03-21T15:07:48.647Z,102846.16
2019-03-21T15:12:52.891Z,102847.83
2019-03-21T15:17:58.700Z,102841.08
2019-03-21T15:23:01.415Z,102848.09
2019-03-21T15:28:05.290Z,102829.95
2019-03-21T15:33:09.109Z,102837.22
2019-03-21T15:38:13.380Z,102832.41
2019-03-21T15:43:17.228Z,102837.14
2019-03-21T15:48:21.222Z,102843.05
2019-03-21T15:53:25.115Z,102836.71
2019-03-21T15:58:28.990Z,102852.20
2019-03-21T16:03:32.554Z,102860.59
2019-03-21T16:08:36.567Z,102867.88
2019-03-21T16:13:40.695Z,102860.87
2019-03-21T16:18:44.373Z,102864.31
2019-03-21T16:23:48.258Z,102862.52
2019-03-21T16:28:52.152Z,102863.59
2019-03-21T16:33:56.432Z,102846.91
2019-03-21T16:39:00.658Z,102855.39
2019-03-21T16:44:03.781Z,102851.48
2019-03-21T16:49:07.796Z,102847.90
2019-03-21T16:54:16.995Z,102843.65
2019-03-21T16:59:17.253Z,102846.01
2019-03-21T17:04:20.390Z,102841.39
2019-03-21T17:09:24.384Z,102843.98
2019-03-21T17:14:27.836Z,102831.15
2019-03-21T17:19:32.417Z,102837.88
2019-03-21T17:24:36.501Z,102845.88
2019-03-21T17:29:40.358Z,102831.23
2019-03-21T17:34:43.944Z,102825.63
2019-03-21T17:39:47.795Z,102840.42
2019-03-21T17:44:51.685Z,102846.16
2019-03-21T17:49:55.244Z,102852.84
2019-03-21T17:54:59.065Z,102863.92
2019-03-21T18:00:03.687Z,102864.77
2019-03-21T18:05:07.666Z,102863.06
2019-03-21T18:10:29.694Z,102863.79
2019-03-21T18:15:33.310Z,102864.12
2019-03-21T18:20:37.590Z,102855.95
2019-03-21T18:25:41.326Z,102867.64
2019-03-21T18:30:46.352Z,102871.20
2019-03-21T18:35:51.017Z,102874.11
2019-03-21T18:41:05.413Z,102888.84
2019-03-21T18:46:09.512Z,102889.33
2019-03-21T18:51:13.057Z,102886.95
2019-03-21T18:56:16.617Z,102887.32
2019-03-21T19:01:26.880Z,102895.14
2019-03-21T19:06:43.439Z,102907.38
2019-03-21T19:11:47.788Z,102917.56
2019-03-21T19:16:52.258Z,102925.23
2019-03-21T19:22:13.744Z,102931.52
2019-03-21T19:27:30.888Z,102940.88
2019-03-21T19:32:37.997Z,102947.06
2019-03-21T19:37:48.943Z,102945.06
2019-03-21T19:42:53.495Z,102945.06
2019-03-21T19:47:58.029Z,102950.95
2019-03-21T19:53:01.862Z,102959.66
2019-03-21T19:58:06.243Z,102959.03
2019-03-21T20:03:12.076Z,102964.77
2019-03-21T20:08:20.053Z,102961.61
2019-03-21T20:13:26.630Z,102968.40
2019-03-21T20:18:33.915Z,102972.92
2019-03-21T20:23:38.235Z,102962.47
2019-03-21T20:28:41.774Z,102964.36
2019-03-21T20:33:45.872Z,102959.21
2019-03-21T20:38:51.117Z,102955.06
2019-03-21T20:43:55.434Z,102955.47
2019-03-21T20:48:56.907Z,102955.22
2019-03-21T20:54:00.749Z,102944.55
2019-03-21T20:59:04.392Z,102949.58
2019-03-21T21:04:08.772Z,102951.67
2019-03-21T21:09:12.638Z,102932.97
2019-03-21T21:14:17.553Z,102945.92
2019-03-21T21:19:21.518Z,102936.22
2019-03-21T21:24:25.603Z,102943.40
2019-03-21T21:29:29.923Z,102937.25
2019-03-21T21:34:35.555Z,102947.45
2019-03-21T21:39:39.477Z,102944.16
2019-03-21T21:44:43.299Z,102933.22
2019-03-21T21:49:47.430Z,102921.00
2019-03-21T21:54:51.335Z,102934.98
2019-03-21T21:59:55.526Z,102932.59
2019-03-21T22:05:00.534Z,102934.86
2019-03-21T22:10:05.203Z,102933.98
2019-03-21T22:15:09.972Z,102925.43
2019-03-21T22:20:14.092Z,102932.59
2019-03-21T22:25:18.264Z,102938.39
2019-03-21T22:30:21.867Z,102928.47
2019-03-21T22:35:25.097Z,102922.67
2019-03-21T22:40:29.024Z,102922.03
2019-03-21T22:45:32.538Z,102934.36
2019-03-21T22:50:35.609Z,102926.91
2019-03-21T22:55:39.488Z,102922.65
2019-03-21T23:00:47.081Z,102923.42
2019-03-21T23:05:50.908Z,102926.58
2019-03-21T23:10:54.732Z,102923.44
2019-03-21T23:15:59.068Z,102924.67
2019-03-21T23:21:02.809Z,102930.09
2019-03-21T23:26:06.870Z,102913.37
2019-03-21T23:31:10.600Z,102912.47
2019-03-21T23:36:14.778Z,102913.10
2019-03-21T23:41:18.278Z,102917.52
2019-03-21T23:46:23.361Z,102928.19
2019-03-21T23:51:26.520Z,102913.35
2019-03-21T23:56:30.365Z,102915.88
